English version
lugares datos climáticos artículos

datos de Mairena del Aljarafe, Sevilla, España
Año Mes Dia Mostrar

  Fecha       hora        Temp.ext.    Hum.ext.  Dir.Viento   Vel.Viento  Presion al NM   T.int. Prec.hoy 

   27-04-2017    22:30      15.8º(-0.8)     90%         -         0.0 km/h    1009.1 hpa     25.7º    4.1 mm
   27-04-2017    22:25      15.8º(-0.9)     90%         -         0.0 km/h    1009.0 hpa     25.7º    4.1 mm
   27-04-2017    22:20      15.7º(-1.0)     90%         -         0.0 km/h    1009.0 hpa     25.7º    4.1 mm
   27-04-2017    22:15      15.6º(-1.2)     89%         -         0.0 km/h    1009.0 hpa     25.7º    3.8 mm
   27-04-2017    22:10      15.8º(-1.0)     90%         -         0.0 km/h    1009.1 hpa     25.7º    3.8 mm
   27-04-2017    22:05      15.8º(-1.2)     90%         -         0.0 km/h    1009.0 hpa     25.7º    3.8 mm
   27-04-2017    22:00      15.8º(-1.3)     90%         -         0.0 km/h    1009.0 hpa     25.7º    3.8 mm
   27-04-2017    21:55      15.8º(-1.4)     90%         -         0.0 km/h    1009.0 hpa     25.7º    3.8 mm
   27-04-2017    21:50      15.8º(-1.5)     89%         -         0.0 km/h    1009.0 hpa     25.8º    3.8 mm
   27-04-2017    21:45      15.9º(-1.4)     90%         -         0.0 km/h    1009.0 hpa     25.7º    3.8 mm
   27-04-2017    21:40      15.9º(-1.5)     89%         -         0.0 km/h    1009.0 hpa     25.7º    3.6 mm
   27-04-2017    21:35      15.9º(-1.7)     89%         -         0.0 km/h    1009.1 hpa     25.7º    3.6 mm
   27-04-2017    21:30      16.0º(-1.7)     88%         -         0.0 km/h    1009.0 hpa     25.7º    3.6 mm
   27-04-2017    21:25      16.1º(-1.8)     89%         -         0.0 km/h    1009.1 hpa     25.7º    3.3 mm
   27-04-2017    21:20      16.0º(-2.1)     89%         -         0.0 km/h    1009.0 hpa     25.7º    3.3 mm
   27-04-2017    21:15      15.8º(-2.5)     88%         -         0.0 km/h    1009.0 hpa     25.8º    3.0 mm
   27-04-2017    21:10      15.8º(-2.6)     88%         -         0.0 km/h    1009.0 hpa     25.8º    3.0 mm
   27-04-2017    21:05      15.8º(-2.7)     88%         -         0.0 km/h    1008.9 hpa     25.8º    2.8 mm
   27-04-2017    21:00      15.9º(-2.7)     87%         -         0.0 km/h    1008.9 hpa     25.8º    2.8 mm
   27-04-2017    20:55      15.9º(-2.8)     88%         -         0.0 km/h    1008.9 hpa     25.8º    2.8 mm
   27-04-2017    20:50      15.9º(-2.9)     88%         -         0.0 km/h    1008.9 hpa     25.8º    2.8 mm
   27-04-2017    20:45      15.9º(-2.9)     87%         -         0.0 km/h    1008.9 hpa     25.7º    2.5 mm
   27-04-2017    20:40      15.9º(-2.9)     87%         -         0.0 km/h    1008.9 hpa     25.7º    2.5 mm
   27-04-2017    20:35      16.1º(-2.7)     86%         -         0.0 km/h    1008.9 hpa     25.7º    2.5 mm
   27-04-2017    20:30      16.1º(-2.8)     87%         -         0.0 km/h    1008.9 hpa     25.7º    2.5 mm
   27-04-2017    20:25      16.2º(-2.9)     87%         -         0.0 km/h    1008.9 hpa     25.7º    2.5 mm
   27-04-2017    20:20      16.2º(-3.1)     87%         -         0.0 km/h    1008.9 hpa     25.7º    2.5 mm
   27-04-2017    20:15      16.2º(-3.2)     86%         -         0.0 km/h    1008.9 hpa     25.7º    2.5 mm
   27-04-2017    20:10      16.3º(-3.3)     86%         -         0.0 km/h    1008.9 hpa     25.6º    2.5 mm
   27-04-2017    20:05      16.2º(-3.4)     85%         -         0.0 km/h    1008.9 hpa     25.6º    2.3 mm
   27-04-2017    20:00      16.2º(-3.5)     84%      247(SW)      1.6 km/h    1008.9 hpa     25.6º    2.3 mm
   27-04-2017    19:55      16.3º(-3.4)     84%      247(SW)      3.2 km/h    1008.9 hpa     25.6º    2.0 mm
   27-04-2017    19:50      16.3º(-3.4)     84%         -         0.0 km/h    1008.9 hpa     25.6º    2.0 mm
   27-04-2017    19:45      16.4º(-3.4)     83%      247(SW)      1.6 km/h    1008.8 hpa     25.6º    1.8 mm
   27-04-2017    19:40      16.6º(-3.3)     83%      247(SW)      4.8 km/h    1008.8 hpa     25.6º    1.8 mm
   27-04-2017    19:35      16.7º(-3.3)     83%      247(SW)      3.2 km/h    1008.8 hpa     25.6º    1.5 mm
   27-04-2017    19:30      16.8º(-3.4)     83%         -         0.0 km/h    1008.8 hpa     25.6º    1.5 mm
   27-04-2017    19:25      16.9º(-3.4)     82%         -         0.0 km/h    1008.9 hpa     25.6º    1.3 mm
   27-04-2017    19:20      16.9º(-3.4)     82%      247(SW)      1.6 km/h    1009.0 hpa     25.6º    1.3 mm
   27-04-2017    19:15      17.1º(-3.3)     81%      225(SW)      4.8 km/h    1009.0 hpa     25.6º    1.0 mm
   27-04-2017    19:10      17.3º(-3.3)     80%      180 (S)      3.2 km/h    1009.1 hpa     25.6º    1.0 mm
   27-04-2017    19:05      17.6º(-3.0)     79%      225(SW)      4.8 km/h    1009.1 hpa     25.6º    1.0 mm
   27-04-2017    19:00      17.7º(-2.8)     79%      247(SW)      4.8 km/h    1009.0 hpa     25.6º    1.0 mm
   27-04-2017    18:55      17.9º(-2.3)     77%      247(SW)      4.8 km/h    1009.0 hpa     25.6º    0.8 mm
   27-04-2017    18:50      18.2º(-1.9)     76%      202 (S)      3.2 km/h    1009.0 hpa     25.6º    0.8 mm
   27-04-2017    18:45      18.4º(-1.8)     73%      225(SW)      3.2 km/h    1008.9 hpa     25.6º    0.8 mm
   27-04-2017    18:40      18.8º(-1.5)     71%      247(SW)      4.8 km/h    1008.8 hpa     25.6º    0.5 mm
   27-04-2017    18:35      19.3º(-1.2)     68%      225(SW)      4.8 km/h    1008.8 hpa     25.6º    0.5 mm
   27-04-2017    18:30      19.6º(-1.0)     67%      247(SW)      3.2 km/h    1008.7 hpa     25.6º    0.3 mm
   27-04-2017    18:25      19.8º(-1.0)     65%      247(SW)      3.2 km/h    1008.7 hpa     25.6º    0.3 mm
   27-04-2017    18:20      19.9º(-1.0)     62%      247(SW)      4.8 km/h    1008.7 hpa     25.6º    0.3 mm
   27-04-2017    18:15      20.3º(-0.9)     60%      225(SW)      4.8 km/h    1008.7 hpa     25.6º    0.3 mm
   27-04-2017    18:10      20.6º(-0.9)     58%      270 (W)      4.8 km/h    1008.7 hpa     25.6º    0.3 mm
   27-04-2017    18:05      20.8º(-0.9)     54%      270 (W)      8.0 km/h    1008.5 hpa     25.6º    0.3 mm
   27-04-2017    18:00      20.9º(-0.9)     53%      247(SW)      6.4 km/h    1008.5 hpa     25.6º    0.3 mm
   27-04-2017    17:55      21.1º(-1.0)     52%      270 (W)      6.4 km/h    1008.5 hpa     25.6º    0.3 mm
   27-04-2017    17:50      21.3º(-0.9)     52%      225(SW)      4.8 km/h    1008.4 hpa     25.6º    0.3 mm
   27-04-2017    17:45      21.3º(-0.7)     52%      247(SW)      3.2 km/h    1008.4 hpa     25.6º    0.3 mm
   27-04-2017    17:40      21.3º(-0.7)     51%      247(SW)      6.4 km/h    1008.4 hpa     25.6º    0.3 mm
   27-04-2017    17:35      21.4º(-0.9)     52%      270 (W)      3.2 km/h    1008.4 hpa     25.6º    0.3 mm
   27-04-2017    17:30      21.4º(-0.9)     51%      247(SW)      6.4 km/h    1008.4 hpa     25.6º    0.3 mm
   27-04-2017    17:25      21.3º(-0.9)     52%      270 (W)      6.4 km/h    1008.5 hpa     25.6º    0.3 mm
   27-04-2017    17:20      21.3º(-0.7)     52%      270 (W)      6.4 km/h    1008.5 hpa     25.6º    0.3 mm
   27-04-2017    17:15      21.3º(-0.6)     51%      270 (W)      9.7 km/h    1008.5 hpa     25.6º    0.3 mm
   27-04-2017    17:10      21.4º(-0.7)     51%      225(SW)      4.8 km/h    1008.6 hpa     25.6º    0.3 mm
   27-04-2017    17:05      21.3º(-0.8)     51%      247(SW)      4.8 km/h    1008.6 hpa     25.6º    0.3 mm
   27-04-2017    17:00      21.3º(-0.5)     51%      247(SW)      3.2 km/h    1008.7 hpa     25.6º    0.3 mm
   27-04-2017    16:55      21.2º(-0.5)     51%      270 (W)      9.7 km/h    1008.7 hpa     25.6º    0.3 mm
   27-04-2017    16:50      21.6º(+0.1)     50%      247(SW)      4.8 km/h    1008.7 hpa     25.6º    0.3 mm
   27-04-2017    16:45      21.7º(+0.0)     49%      270 (W)      8.0 km/h    1008.7 hpa     25.6º    0.3 mm
   27-04-2017    16:40      21.8º(+0.2)     50%      292 (W)      3.2 km/h    1008.7 hpa     25.6º    0.3 mm
   27-04-2017    16:35      21.8º(+0.5)     50%      270 (W)      3.2 km/h    1008.8 hpa     25.6º    0.3 mm
   27-04-2017    16:30      21.7º(+0.4)     50%      270 (W)      4.8 km/h    1008.8 hpa     25.6º    0.3 mm
   27-04-2017    16:25      21.8º(+0.5)     49%      270 (W)      4.8 km/h    1008.9 hpa     25.6º    0.3 mm
   27-04-2017    16:20      21.9º(+0.5)     49%      270 (W)      4.8 km/h    1008.9 hpa     25.6º    0.3 mm
   27-04-2017    16:15      22.1º(+0.7)     49%      112 (E)      4.8 km/h    1008.9 hpa     25.6º    0.3 mm
   27-04-2017    16:10      22.1º(+0.5)     49%      225(SW)      4.8 km/h    1009.0 hpa     25.6º    0.3 mm
   27-04-2017    16:05      21.9º(+0.3)     49%      225(SW)      6.4 km/h    1008.9 hpa     25.6º    0.3 mm
   27-04-2017    16:00      21.8º(+0.1)     50%         -         0.0 km/h    1009.0 hpa     25.6º    0.3 mm
   27-04-2017    15:55      21.8º(+0.2)     50%      247(SW)      1.6 km/h    1009.1 hpa     25.6º    0.3 mm
   27-04-2017    15:50      21.9º(+0.3)     49%      225(SW)      6.4 km/h    1009.2 hpa     25.6º    0.3 mm
   27-04-2017    15:45      21.8º(+0.5)     50%      202 (S)      1.6 km/h    1009.2 hpa     25.6º    0.3 mm
   27-04-2017    15:40      21.3º(+0.1)     52%      270 (W)      1.6 km/h    1009.2 hpa     25.6º    0.3 mm
   27-04-2017    15:35      21.2º(-0.0)     51%      270 (W)      8.0 km/h    1009.2 hpa     25.6º    0.3 mm
   27-04-2017    15:30      21.3º(+0.1)     50%      270 (W)      8.0 km/h    1009.3 hpa     25.5º    0.3 mm
   27-04-2017    15:25      21.3º(-0.0)     50%      270 (W)      8.0 km/h    1009.2 hpa     25.5º    0.3 mm
   27-04-2017    15:20      21.6º(+0.0)     49%      270 (W)      6.4 km/h    1009.3 hpa     25.5º    0.3 mm
   27-04-2017    15:15      21.6º(+0.0)     51%         -         0.0 km/h    1009.2 hpa     25.5º    0.3 mm
   27-04-2017    15:10      21.1º(-0.5)     52%      270 (W)      3.2 km/h    1009.3 hpa     25.5º    0.3 mm
   27-04-2017    15:05      20.7º(-0.6)     53%      270 (W)      6.4 km/h    1009.4 hpa     25.5º    0.3 mm
   27-04-2017    15:00      20.8º(-0.5)     51%      270 (W)      4.8 km/h    1009.3 hpa     25.5º    0.3 mm
   27-04-2017    14:55      20.7º(-0.6)     51%      247(SW)      6.4 km/h    1009.3 hpa     25.5º    0.3 mm
   27-04-2017    14:50      21.0º(-0.2)     51%      135(SE)      3.2 km/h    1009.3 hpa     25.5º    0.3 mm
   27-04-2017    14:45      20.7º(-0.3)     53%         -         0.0 km/h    1009.4 hpa     25.5º    0.3 mm
   27-04-2017    14:40      20.1º(-0.8)     54%      247(SW)      3.2 km/h    1009.4 hpa     25.5º    0.3 mm
   27-04-2017    14:35      20.1º(-0.8)     53%      292 (W)      4.8 km/h    1009.4 hpa     25.5º    0.3 mm
   27-04-2017    14:30      20.0º(-0.8)     54%      292 (W)      4.8 km/h    1009.5 hpa     25.5º    0.3 mm
   27-04-2017    14:25      19.8º(-0.8)     54%      270 (W)      1.6 km/h    1009.6 hpa     25.5º    0.3 mm
   27-04-2017    14:20      19.5º(-1.1)     54%      270 (W)      4.8 km/h    1009.6 hpa     25.5º    0.3 mm
   27-04-2017    14:15      19.2º(-1.5)     56%      270 (W)      1.6 km/h    1009.8 hpa     25.5º    0.3 mm
   27-04-2017    14:10      19.1º(-1.3)     55%      270 (W)      6.4 km/h    1009.8 hpa     25.4º    0.3 mm
   27-04-2017    14:05      19.0º(-1.4)     55%      247(SW)      3.2 km/h    1009.7 hpa     25.4º    0.3 mm
   27-04-2017    14:00      18.8º(-1.1)     56%      292 (W)      6.4 km/h    1009.8 hpa     25.4º    0.3 mm
   27-04-2017    13:55      18.8º(-1.0)     55%      315(NW)      8.0 km/h    1009.8 hpa     25.4º    0.3 mm
   27-04-2017    13:50      18.6º(-1.1)     56%      270 (W)      3.2 km/h    1009.9 hpa     25.4º    0.3 mm
   27-04-2017    13:45      18.4º(-1.2)     56%      270 (W)      9.7 km/h    1009.8 hpa     25.4º    0.3 mm
   27-04-2017    13:40      18.5º(-0.7)     56%      292 (W)      6.4 km/h    1009.9 hpa     25.4º    0.3 mm
   27-04-2017    13:35      18.3º(-0.8)     57%      270 (W)      6.4 km/h    1010.0 hpa     25.4º    0.3 mm
   27-04-2017    13:30      18.4º(-0.6)     57%      270 (W)      8.0 km/h    1010.0 hpa     25.4º    0.3 mm
   27-04-2017    13:25      18.4º(-0.4)     59%      270 (W)      4.8 km/h    1010.2 hpa     25.5º    0.3 mm
   27-04-2017    13:20      18.6º(+0.0)     58%      270 (W)      8.0 km/h    1010.1 hpa     25.5º    0.3 mm
   27-04-2017    13:15      18.7º(+0.3)     57%      270 (W)      1.6 km/h    1010.2 hpa     25.5º    0.3 mm
   27-04-2017    13:10      18.4º(+0.3)     57%      247(SW)      3.2 km/h    1010.2 hpa     25.5º    0.3 mm
   27-04-2017    13:05      18.4º(+0.4)     55%      247(SW)      1.6 km/h    1010.3 hpa     25.5º    0.3 mm
   27-04-2017    13:00      18.1º(+0.0)     55%      247(SW)      1.6 km/h    1010.3 hpa     25.5º    0.3 mm
   27-04-2017    12:55      18.0º(+0.1)     55%      247(SW)      4.8 km/h    1010.3 hpa     25.5º    0.3 mm
   27-04-2017    12:50      17.9º(+0.1)     55%      270 (W)      6.4 km/h    1010.3 hpa     25.5º    0.3 mm
   27-04-2017    12:45      17.9º(-0.0)     55%      270 (W)      4.8 km/h    1010.3 hpa     25.5º    0.3 mm
   27-04-2017    12:40      17.8º(-0.1)     55%      270 (W)      6.4 km/h    1010.5 hpa     25.5º    0.3 mm
   27-04-2017    12:35      17.9º(-0.2)     58%      225(SW)      4.8 km/h    1010.3 hpa     25.5º    0.3 mm
   27-04-2017    12:30      17.8º(+0.1)     56%      270 (W)      3.2 km/h    1010.2 hpa     25.5º    0.3 mm
   27-04-2017    12:25      17.6º(-0.0)     54%      270 (W)      6.4 km/h    1010.2 hpa     25.5º    0.3 mm
   27-04-2017    12:20      17.4º(-0.3)     55%      270 (W)      6.4 km/h    1010.2 hpa     25.5º    0.3 mm
   27-04-2017    12:15      17.3º(-0.3)     56%      270 (W)      6.4 km/h    1010.3 hpa     25.5º    0.3 mm
   27-04-2017    12:10      17.2º(-0.1)     59%      270 (W)      8.0 km/h    1010.3 hpa     25.5º    0.3 mm
   27-04-2017    12:05      17.2º(-0.1)     57%      247(SW)      6.4 km/h    1010.2 hpa     25.4º    0.3 mm
   27-04-2017    12:00      17.1º(-0.0)     58%      270 (W)      6.4 km/h    1010.2 hpa     25.4º    0.3 mm
   27-04-2017    11:55      17.1º(+0.2)     62%      225(SW)      4.8 km/h    1010.3 hpa     25.4º    0.3 mm
   27-04-2017    11:50      17.1º(+0.3)     63%      247(SW)      6.4 km/h    1010.3 hpa     25.4º    0.3 mm
   27-04-2017    11:45      17.2º(+0.5)     66%      247(SW)      4.8 km/h    1010.1 hpa     25.4º    0.3 mm
   27-04-2017    11:40      17.1º(+0.4)     63%      247(SW)      4.8 km/h    1009.9 hpa     25.4º    0.3 mm
   27-04-2017    11:35      17.2º(+0.7)     64%      225(SW)      6.4 km/h    1009.9 hpa     25.3º    0.3 mm
   27-04-2017    11:30      17.0º(+0.6)     66%      225(SW)      4.8 km/h    1009.9 hpa     25.3º    0.3 mm
   27-04-2017    11:25      16.8º(+0.4)     69%      225(SW)      4.8 km/h    1009.9 hpa     25.3º    0.3 mm
   27-04-2017    11:20      16.8º(+0.5)     70%      202 (S)      6.4 km/h    1010.0 hpa     25.3º    0.3 mm
   27-04-2017    11:15      17.0º(+0.8)     72%      045(NE)      3.2 km/h    1010.0 hpa     25.4º    0.3 mm
   27-04-2017    11:10      16.9º(+0.7)     75%      202 (S)      1.6 km/h    1009.8 hpa     25.4º    0.3 mm
   27-04-2017    11:05      16.6º(+0.5)     75%      090 (E)      1.6 km/h    1009.9 hpa     25.4º    0.3 mm
   27-04-2017    11:00      16.3º(+0.2)     77%      225(SW)      1.6 km/h    1009.8 hpa     25.4º    0.3 mm
   27-04-2017    10:55      16.2º(-0.0)     77%      180 (S)      3.2 km/h    1009.8 hpa     25.4º    0.3 mm
   27-04-2017    10:50      16.2º(-0.0)     77%      225(SW)      3.2 km/h    1009.9 hpa     25.4º    0.3 mm
   27-04-2017    10:45      16.2º(+0.1)     77%      225(SW)      3.2 km/h    1009.8 hpa     25.5º    0.3 mm
   27-04-2017    10:40      16.2º(+0.1)     78%         -         0.0 km/h    1009.9 hpa     25.5º    0.3 mm
   27-04-2017    10:35      16.0º(-0.1)     81%         -         0.0 km/h    1009.9 hpa     25.6º    0.3 mm
   27-04-2017    10:30      15.8º(-0.3)     82%         -         0.0 km/h    1009.9 hpa     25.6º    0.3 mm
   27-04-2017    10:25      15.4º(-0.6)     83%         -         0.0 km/h    1009.8 hpa     25.6º    0.3 mm
   27-04-2017    10:20      15.3º(-0.6)     83%         -         0.0 km/h    1009.7 hpa     25.6º    0.3 mm
   27-04-2017    10:15      15.2º(-0.6)     83%         -         0.0 km/h    1009.7 hpa     25.6º    0.3 mm
   27-04-2017    10:10      15.2º(-0.6)     84%         -         0.0 km/h    1009.6 hpa     25.6º    0.3 mm
   27-04-2017    10:05      15.1º(-0.6)     85%         -         0.0 km/h    1009.6 hpa     25.6º    0.3 mm
   27-04-2017    10:00      14.9º(-0.7)     86%         -         0.0 km/h    1009.5 hpa     25.6º    0.3 mm
   27-04-2017    09:55      14.8º(-0.6)     86%         -         0.0 km/h    1009.5 hpa     25.7º    0.3 mm
   27-04-2017    09:50      14.6º(-0.7)     86%         -         0.0 km/h    1009.6 hpa     25.7º    0.3 mm
   27-04-2017    09:45      14.6º(-0.7)     86%         -         0.0 km/h    1009.6 hpa     25.7º    0.3 mm
   27-04-2017    09:40      14.4º(-0.8)     87%         -         0.0 km/h    1009.6 hpa     25.8º    0.3 mm
   27-04-2017    09:35      14.4º(-0.7)     87%         -         0.0 km/h    1009.6 hpa     25.8º    0.3 mm
   27-04-2017    09:30      14.3º(-0.6)     87%         -         0.0 km/h    1009.7 hpa     25.8º    0.3 mm
   27-04-2017    09:25      14.3º(-0.5)     87%         -         0.0 km/h    1009.6 hpa     25.8º    0.3 mm
   27-04-2017    09:20      14.3º(-0.4)     87%         -         0.0 km/h    1009.6 hpa     25.8º    0.3 mm
   27-04-2017    09:15      14.2º(-0.4)     87%         -         0.0 km/h    1009.6 hpa     25.8º    0.3 mm
   27-04-2017    09:10      14.2º(-0.2)     87%         -         0.0 km/h    1009.5 hpa     25.8º    0.3 mm
   27-04-2017    09:05      14.3º(+0.1)     87%         -         0.0 km/h    1009.5 hpa     25.8º    0.3 mm
   27-04-2017    09:00      14.4º(+0.2)     87%         -         0.0 km/h    1009.4 hpa     25.8º    0.3 mm
   27-04-2017    08:55      14.6º(+0.5)     88%         -         0.0 km/h    1009.4 hpa     25.8º    0.3 mm
   27-04-2017    08:50      14.4º(+0.3)     87%         -         0.0 km/h    1009.5 hpa     25.8º    0.3 mm
   27-04-2017    08:45      14.3º(+0.1)     87%         -         0.0 km/h    1009.4 hpa     25.9º    0.3 mm
   27-04-2017    08:40      14.2º(-0.0)     87%         -         0.0 km/h    1009.2 hpa     25.9º    0.3 mm
   27-04-2017    08:35      14.2º(-0.0)     87%         -         0.0 km/h    1009.1 hpa     25.9º    0.3 mm
   27-04-2017    08:30      14.2º(+0.1)     87%         -         0.0 km/h    1009.1 hpa     25.8º    0.3 mm
   27-04-2017    08:25      14.2º(+0.2)     87%         -         0.0 km/h    1009.1 hpa     25.8º    0.3 mm
   27-04-2017    08:20      14.1º(+0.3)     87%         -         0.0 km/h    1009.1 hpa     25.8º    0.3 mm
   27-04-2017    08:15      14.1º(+0.5)     87%         -         0.0 km/h    1009.0 hpa     25.8º    0.3 mm
   27-04-2017    08:10      14.1º(+0.6)     87%         -         0.0 km/h    1009.0 hpa     25.8º    0.3 mm
   27-04-2017    08:05      14.1º(+0.4)     87%         -         0.0 km/h    1008.8 hpa     25.8º    0.3 mm
   27-04-2017    08:00      14.1º(+0.4)     87%      247(SW)      3.2 km/h    1008.7 hpa     25.8º    0.3 mm
   27-04-2017    07:55      14.2º(+0.5)     87%      247(SW)      1.6 km/h    1008.7 hpa     25.8º    0.3 mm
   27-04-2017    07:50      14.2º(+0.4)     87%      247(SW)      1.6 km/h    1008.7 hpa     25.8º    0.3 mm
   27-04-2017    07:45      14.1º(+0.2)     87%      247(SW)      1.6 km/h    1008.7 hpa     25.9º    0.3 mm
   27-04-2017    07:40      14.1º(+0.2)     87%      247(SW)      3.2 km/h    1008.7 hpa     25.9º    0.3 mm
   27-04-2017    07:35      14.1º(+0.2)     87%      247(SW)      1.6 km/h    1008.6 hpa     25.9º    0.3 mm
   27-04-2017    07:30      14.1º(+0.2)     87%         -         0.0 km/h    1008.5 hpa     25.9º    0.3 mm
   27-04-2017    07:25      14.2º(+0.3)     87%         -         0.0 km/h    1008.6 hpa     25.8º    0.3 mm
   27-04-2017    07:20      14.2º(+0.3)     87%      247(SW)      4.8 km/h    1008.5 hpa     25.8º    0.3 mm
   27-04-2017    07:15      14.2º(+0.3)     87%      247(SW)      1.6 km/h    1008.6 hpa     25.8º    0.3 mm
   27-04-2017    07:10      14.2º(+0.3)     87%      247(SW)      1.6 km/h    1008.6 hpa     25.8º    0.3 mm
   27-04-2017    07:05      14.2º(+0.3)     87%      247(SW)      3.2 km/h    1008.6 hpa     25.8º    0.3 mm
   27-04-2017    07:00      14.2º(+0.3)     88%      247(SW)      3.2 km/h    1008.6 hpa     25.8º    0.3 mm
   27-04-2017    06:55      14.2º(+0.3)     88%      247(SW)      4.8 km/h    1008.6 hpa     25.8º    0.3 mm
   27-04-2017    06:50      14.2º(+0.3)     88%      247(SW)      1.6 km/h    1008.6 hpa     25.8º    0.3 mm
   27-04-2017    06:45      14.2º(+0.3)     88%      247(SW)      3.2 km/h    1008.7 hpa     25.8º    0.3 mm
   27-04-2017    06:40      14.3º(+0.4)     88%      247(SW)      6.4 km/h    1008.7 hpa     25.8º    0.3 mm
   27-04-2017    06:35      14.3º(+0.5)     88%      247(SW)      1.6 km/h    1008.6 hpa     25.8º    0.3 mm
   27-04-2017    06:30      14.3º(+0.5)     88%         -         0.0 km/h    1008.7 hpa     25.8º    0.3 mm
   27-04-2017    06:25      14.3º(+0.5)     87%      247(SW)      6.4 km/h    1008.7 hpa     25.8º    0.3 mm
   27-04-2017    06:20      14.3º(+0.4)     88%      247(SW)      4.8 km/h    1008.7 hpa     25.8º    0.3 mm
   27-04-2017    06:15      14.5º(+0.6)     88%      247(SW)      1.6 km/h    1008.7 hpa     25.8º    0.3 mm
   27-04-2017    06:10      14.7º(+0.8)     89%         -         0.0 km/h    1008.7 hpa     25.8º    0.3 mm
   27-04-2017    06:05      14.7º(+0.8)     88%         -         0.0 km/h    1008.7 hpa     25.9º    0.3 mm
   27-04-2017    06:00      14.7º(+0.8)     88%      225(SW)      1.6 km/h    1008.7 hpa     25.9º    0.3 mm
   27-04-2017    05:55      14.8º(+0.9)     88%         -         0.0 km/h    1008.7 hpa     25.9º    0.3 mm
   27-04-2017    05:50      14.9º(+1.0)     87%      225(SW)      1.6 km/h    1008.7 hpa     25.9º    0.3 mm
   27-04-2017    05:45      15.2º(+1.2)     88%         -         0.0 km/h    1008.7 hpa     25.9º    0.3 mm
   27-04-2017    05:40      15.2º(+1.1)     88%         -         0.0 km/h    1008.7 hpa     25.9º    0.3 mm
   27-04-2017    05:35      15.2º(+1.1)     88%         -         0.0 km/h    1008.7 hpa     25.9º    0.3 mm
   27-04-2017    05:30      15.3º(+1.1)     88%         -         0.0 km/h    1008.7 hpa     25.9º    0.3 mm
   27-04-2017    05:25      15.3º(+1.1)     87%         -         0.0 km/h    1008.7 hpa     25.9º    0.3 mm
   27-04-2017    05:20      15.3º(+1.0)     88%         -         0.0 km/h    1008.8 hpa     25.9º    0.3 mm
   27-04-2017    05:15      15.3º(+1.0)     87%         -         0.0 km/h    1008.8 hpa     25.9º    0.3 mm
   27-04-2017    05:10      15.3º(+1.0)     87%         -         0.0 km/h    1008.7 hpa     25.9º    0.3 mm
   27-04-2017    05:05      15.3º(+1.1)     87%         -         0.0 km/h    1008.8 hpa     25.9º    0.3 mm
   27-04-2017    05:00      15.4º(+1.2)     87%         -         0.0 km/h    1008.9 hpa     25.9º    0.3 mm
   27-04-2017    04:55      15.4º(+1.2)     87%         -         0.0 km/h    1008.8 hpa     25.9º    0.3 mm
   27-04-2017    04:50      15.4º(+1.3)     87%         -         0.0 km/h    1008.8 hpa     25.9º    0.3 mm
   27-04-2017    04:45      15.4º(+1.3)     87%         -         0.0 km/h    1008.8 hpa     25.9º    0.3 mm
   27-04-2017    04:40      15.4º(+1.2)     87%         -         0.0 km/h    1008.8 hpa     25.9º    0.0 mm
   27-04-2017    04:35      15.5º(+1.3)     87%         -         0.0 km/h    1008.7 hpa     25.9º    0.0 mm
   27-04-2017    04:30      15.5º(+1.2)     87%         -         0.0 km/h    1008.9 hpa     25.9º    0.0 mm
   27-04-2017    04:25      15.6º(+1.3)     87%         -         0.0 km/h    1008.9 hpa     25.9º    0.0 mm
   27-04-2017    04:20      15.6º(+1.3)     87%         -         0.0 km/h    1008.8 hpa     25.9º    0.0 mm
   27-04-2017    04:15      15.6º(+1.3)     87%         -         0.0 km/h    1008.9 hpa     25.9º    0.0 mm
   27-04-2017    04:10      15.6º(+1.3)     87%         -         0.0 km/h    1008.8 hpa     25.9º    0.0 mm
   27-04-2017    04:05      15.5º(+1.2)     87%         -         0.0 km/h    1008.8 hpa     25.9º    0.0 mm
   27-04-2017    04:00      15.5º(+1.2)     87%         -         0.0 km/h    1008.8 hpa     25.9º    0.0 mm
   27-04-2017    03:55      15.5º(+1.2)     87%         -         0.0 km/h    1008.8 hpa     25.9º    0.0 mm
   27-04-2017    03:50      15.6º(+1.3)     87%         -         0.0 km/h    1008.7 hpa     25.9º    0.0 mm
   27-04-2017    03:45      15.5º(+1.2)     87%         -         0.0 km/h    1008.8 hpa     25.9º    0.0 mm
   27-04-2017    03:40      15.4º(+1.1)     87%         -         0.0 km/h    1008.8 hpa     25.9º    0.0 mm
   27-04-2017    03:35      15.4º(+1.0)     87%         -         0.0 km/h    1008.9 hpa     25.9º    0.0 mm
   27-04-2017    03:30      15.4º(+1.0)     87%         -         0.0 km/h    1008.8 hpa     25.9º    0.0 mm
   27-04-2017    03:25      15.4º(+0.9)     87%         -         0.0 km/h    1008.9 hpa     25.9º    0.0 mm
   27-04-2017    03:20      15.4º(+0.8)     87%         -         0.0 km/h    1008.9 hpa     25.9º    0.0 mm
   27-04-2017    03:15      15.4º(+0.7)     87%         -         0.0 km/h    1009.1 hpa     25.9º    0.0 mm
   27-04-2017    03:10      15.4º(+0.6)     87%         -         0.0 km/h    1009.0 hpa     25.9º    0.0 mm
   27-04-2017    03:05      15.4º(+0.5)     87%         -         0.0 km/h    1009.1 hpa     25.9º    0.0 mm
   27-04-2017    03:00      15.4º(+0.4)     87%         -         0.0 km/h    1009.2 hpa     25.9º    0.0 mm
   27-04-2017    02:55      15.4º(+0.3)     87%         -         0.0 km/h    1009.2 hpa     26.0º    0.0 mm
   27-04-2017    02:50      15.4º(+0.3)     87%         -         0.0 km/h    1009.0 hpa     26.0º    0.0 mm
   27-04-2017    02:45      15.4º(+0.2)     87%         -         0.0 km/h    1009.1 hpa     26.0º    0.0 mm
   27-04-2017    02:40      15.4º(+0.2)     87%         -         0.0 km/h    1009.1 hpa     26.0º    0.0 mm
   27-04-2017    02:35      15.4º(+0.1)     87%         -         0.0 km/h    1009.2 hpa     26.0º    0.0 mm
   27-04-2017    02:30      15.4º(+0.1)     87%         -         0.0 km/h    1009.3 hpa     26.0º    0.0 mm
   27-04-2017    02:25      15.4º(+0.1)     87%         -         0.0 km/h    1009.3 hpa     26.0º    0.0 mm
   27-04-2017    02:20      15.4º(+0.0)     87%         -         0.0 km/h    1009.3 hpa     26.0º    0.0 mm
   27-04-2017    02:15      15.4º(-0.0)     87%      180 (S)      1.6 km/h    1009.4 hpa     26.0º    0.0 mm
   27-04-2017    02:10      15.3º(-0.1)     87%         -         0.0 km/h    1009.4 hpa     26.0º    0.0 mm
   27-04-2017    02:05      15.3º(-0.3)     87%         -         0.0 km/h    1009.5 hpa     26.0º    0.0 mm
   27-04-2017    02:00      15.3º(-0.3)     87%      180 (S)      1.6 km/h    1009.7 hpa     26.0º    0.0 mm
   27-04-2017    01:55      15.3º(----)     87%      180 (S)      1.6 km/h    1009.5 hpa     26.0º    0.0 mm
   27-04-2017    01:50      15.4º(----)     87%         -         0.0 km/h    1009.5 hpa     26.0º    0.0 mm
   27-04-2017    01:45      15.4º(----)     87%         -         0.0 km/h    1009.5 hpa     26.0º    0.0 mm
   27-04-2017    01:40      15.4º(----)     87%         -         0.0 km/h    1009.6 hpa     26.0º    0.0 mm
   27-04-2017    01:35      15.4º(----)     87%         -         0.0 km/h    1009.7 hpa     26.0º    0.0 mm
   27-04-2017    01:30      15.4º(----)     86%         -         0.0 km/h    1009.7 hpa     26.0º    0.0 mm
   27-04-2017    01:25      15.4º(----)     86%         -         0.0 km/h    1009.8 hpa     26.0º    0.0 mm
   27-04-2017    01:20      15.3º(----)     86%         -         0.0 km/h    1009.8 hpa     26.0º    0.0 mm
   27-04-2017    01:15      15.3º(----)     86%      180 (S)      1.6 km/h    1009.8 hpa     26.0º    0.0 mm
   27-04-2017    01:10      15.3º(----)     86%      180 (S)      1.6 km/h    1009.9 hpa     26.0º    0.0 mm
   27-04-2017    01:05      15.3º(----)     86%      180 (S)      3.2 km/h    1009.9 hpa     26.0º    0.0 mm
   27-04-2017    01:00      15.3º(----)     85%      180 (S)      1.6 km/h    1009.9 hpa     26.0º    0.0 mm
   27-04-2017    00:55      15.3º(----)     85%      135(SE)      1.6 km/h    1009.8 hpa     26.0º    0.0 mm
   27-04-2017    00:50      15.4º(----)     85%         -         0.0 km/h    1009.7 hpa     26.0º    0.0 mm
   27-04-2017    00:45      15.4º(----)     84%         -         0.0 km/h    1009.7 hpa     26.1º    0.0 mm
   27-04-2017    00:40      15.4º(----)     83%         -         0.0 km/h    1009.7 hpa     26.1º    0.0 mm
   27-04-2017    00:35      15.7º(----)     83%      135(SE)      1.6 km/h    1009.7 hpa     26.1º    0.0 mm
   27-04-2017    00:30      15.9º(----)     83%      202 (S)      1.6 km/h    1009.8 hpa     26.1º    0.0 mm
   27-04-2017    00:25      15.9º(----)     83%      247(SW)      1.6 km/h    1009.7 hpa     26.1º    0.0 mm
   27-04-2017    00:20      16.0º(----)     83%      270 (W)      3.2 km/h    1009.9 hpa     26.1º    0.0 mm
   27-04-2017    00:15      16.0º(----)     83%      247(SW)      6.4 km/h    1009.9 hpa     26.1º    0.0 mm
   27-04-2017    00:10      16.0º(----)     83%      247(SW)      9.7 km/h    1009.7 hpa     26.1º    0.0 mm
   27-04-2017    00:05      16.1º(----)     82%      270 (W)      8.0 km/h    1009.7 hpa     26.1º    0.0 mm
   27-04-2017    00:00      16.2º(----)     82%      247(SW)      8.0 km/h    1009.8 hpa     26.1º    0.0 mm